Time;durP1;ratioP1;P1;durP2;ratioP2;P2;SDS_P1;SDS_P2;PMS_P1;PMS_P2;Temp;Humidity;BMP_temperature;BMP_pressure;BME280_temperature;BME280_humidity;BME280_pressure;Samples;Min_cycle;Max_cycle;Signal;HPM_P1;HPM_P2
2023/08/20 00:02:46;;;;;;;15.40;14.00;;;28.00;65.10;;;;;;221877;1266;23963;-50
2023/08/20 00:07:49;;;;;;;15.50;14.10;;;28.00;65.20;;;;;;221700;1269;22640;-50
2023/08/20 00:12:51;;;;;;;17.40;14.30;;;28.00;65.20;;;;;;221934;1264;22624;-52
2023/08/20 00:17:55;;;;;;;16.00;14.50;;;28.00;65.20;;;;;;222055;1256;22629;-51
2023/08/20 00:22:59;;;;;;;15.50;14.00;;;27.90;65.00;;;;;;221946;1255;25303;-49
2023/08/20 00:28:01;;;;;;;15.10;13.60;;;27.90;65.40;;;;;;221994;1266;23407;-49
2023/08/20 00:33:05;;;;;;;15.70;14.20;;;27.90;65.30;;;;;;221710;1269;22536;-54
2023/08/20 00:38:08;;;;;;;14.60;13.40;;;27.90;65.30;;;;;;221537;1259;22536;-51
2023/08/20 00:43:11;;;;;;;14.60;13.20;;;27.90;65.30;;;;;;221596;1265;22548;-51
2023/08/20 00:48:15;;;;;;;14.80;13.40;;;27.90;65.40;;;;;;221780;1269;22527;-49
2023/08/20 00:53:18;;;;;;;14.30;13.10;;;27.90;65.70;;;;;;221934;1256;22531;-51
2023/08/20 00:58:21;;;;;;;14.50;13.30;;;27.90;65.30;;;;;;221805;1264;23308;-49
2023/08/20 01:03:24;;;;;;;14.10;12.80;;;27.80;65.30;;;;;;221925;1271;22893;-50
2023/08/20 01:08:40;;;;;;;13.70;12.50;;;27.90;65.30;;;;;;221697;1270;22660;-49
2023/08/20 01:13:45;;;;;;;13.40;12.20;;;27.90;65.60;;;;;;222066;1268;25364;-50
2023/08/20 01:18:48;;;;;;;13.00;11.90;;;27.80;65.30;;;;;;221870;1265;22517;-50
2023/08/20 01:24:09;;;;;;;12.70;11.60;;;27.80;65.30;;;;;;221800;1267;23910;-50
2023/08/20 01:29:12;;;;;;;12.20;11.20;;;27.80;65.30;;;;;;221791;1271;22527;-50
2023/08/20 01:34:15;;;;;;;13.20;12.00;;;27.80;65.60;;;;;;222062;1262;22547;-50
2023/08/20 01:39:20;;;;;;;13.00;11.80;;;27.80;65.20;;;;;;222000;1270;22678;-51
2023/08/20 01:44:23;;;;;;;12.00;11.10;;;27.80;65.10;;;;;;221977;1256;24328;-50
2023/08/20 01:49:26;;;;;;;11.20;10.20;;;27.70;65.00;;;;;;222032;1271;22575;-51
2023/08/20 01:54:29;;;;;;;11.40;10.40;;;27.70;64.80;;;;;;221752;1257;22539;-50
2023/08/20 01:59:32;;;;;;;12.30;11.30;;;27.70;64.80;;;;;;221934;1268;22553;-50
2023/08/20 02:04:35;;;;;;;11.70;10.70;;;27.70;64.90;;;;;;221769;1270;22526;-50
2023/08/20 02:09:37;;;;;;;12.00;10.90;;;27.70;64.90;;;;;;222021;1271;22596;-50
2023/08/20 02:14:41;;;;;;;11.60;10.50;;;27.70;65.30;;;;;;221648;1270;24107;-51
2023/08/20 02:19:44;;;;;;;12.20;10.40;;;27.60;64.90;;;;;;222063;1266;22530;-51
2023/08/20 02:24:46;;;;;;;11.10;10.10;;;27.60;65.10;;;;;;221747;1255;25348;-50
2023/08/20 02:29:51;;;;;;;11.20;10.20;;;27.60;64.80;;;;;;221965;1268;22671;-50
2023/08/20 02:34:54;;;;;;;11.00;10.20;;;27.60;64.70;;;;;;221755;1266;22643;-50
2023/08/20 02:40:01;;;;;;;10.80;9.90;;;27.60;64.70;;;;;;221891;1264;24176;-50
2023/08/20 02:45:04;;;;;;;11.10;10.00;;;27.60;64.70;;;;;;221771;1268;22536;-52
2023/08/20 02:50:08;;;;;;;11.60;10.60;;;27.50;64.60;;;;;;221862;1268;22523;-51
2023/08/20 02:55:10;;;;;;;11.20;10.10;;;27.60;64.80;;;;;;222017;1268;24208;-53
2023/08/20 03:00:14;;;;;;;12.00;11.00;;;27.50;64.40;;;;;;222080;1268;22682;-51
2023/08/20 03:05:17;;;;;;;11.10;10.00;;;27.50;64.40;;;;;;222160;1270;23539;-52
2023/08/20 03:10:19;;;;;;;11.60;10.70;;;27.50;64.40;;;;;;221938;1271;22554;-49
2023/08/20 03:15:22;;;;;;;10.40;9.60;;;27.50;64.30;;;;;;221943;1269;23939;-47
2023/08/20 03:20:25;;;;;;;11.60;10.70;;;27.50;64.30;;;;;;222019;1271;22575;-48
2023/08/20 03:25:28;;;;;;;11.90;11.00;;;27.50;64.30;;;;;;221982;1270;188999;-49
2023/08/20 03:30:31;;;;;;;10.70;9.90;;;27.40;64.10;;;;;;221947;1257;22599;-51
2023/08/20 03:35:34;;;;;;;10.40;9.50;;;27.40;64.10;;;;;;221959;1264;25345;-47
2023/08/20 03:40:40;;;;;;;11.20;10.10;;;27.40;63.90;;;;;;221825;1267;22531;-50
2023/08/20 03:45:50;;;;;;;10.40;9.50;;;27.40;63.90;;;;;;221776;1268;22653;-49
2023/08/20 03:50:54;;;;;;;11.10;10.00;;;27.30;63.70;;;;;;221903;1268;22589;-52
2023/08/20 03:55:57;;;;;;;10.40;9.50;;;27.40;63.90;;;;;;222037;1269;22535;-51
2023/08/20 04:01:00;;;;;;;10.20;9.20;;;27.30;63.90;;;;;;221665;1263;22521;-48
2023/08/20 04:06:03;;;;;;;10.80;9.90;;;27.40;63.90;;;;;;221738;1270;24198;-51
2023/08/20 04:11:07;;;;;;;10.50;9.50;;;27.30;63.90;;;;;;221608;1271;22759;-50
2023/08/20 04:16:10;;;;;;;10.30;9.60;;;27.30;63.80;;;;;;221536;1260;22615;-49
2023/08/20 04:21:13;;;;;;;10.30;9.50;;;27.30;63.90;;;;;;221872;1269;22530;-47
2023/08/20 04:26:16;;;;;;;10.30;9.40;;;27.30;64.20;;;;;;221837;1270;22524;-50
2023/08/20 04:31:19;;;;;;;10.60;9.70;;;27.30;64.20;;;;;;221735;1258;22526;-46
2023/08/20 04:36:27;;;;;;;9.30;8.60;;;27.30;63.80;;;;;;221875;1271;22569;-48
2023/08/20 04:41:30;;;;;;;9.10;8.40;;;27.30;63.80;;;;;;221795;1265;22524;-47
2023/08/20 04:46:33;;;;;;;9.80;9.00;;;27.30;63.80;;;;;;221812;1271;22544;-48
2023/08/20 04:51:37;;;;;;;8.90;8.20;;;27.30;63.90;;;;;;221832;1253;22569;-51
2023/08/20 04:56:43;;;;;;;9.10;8.40;;;27.30;64.00;;;;;;221754;1271;23887;-51
2023/08/20 05:01:47;;;;;;;9.60;8.40;;;27.30;64.00;;;;;;221496;1271;22553;-50
2023/08/20 05:06:50;;;;;;;9.50;8.60;;;27.30;64.10;;;;;;221626;1268;22935;-51
2023/08/20 05:11:55;;;;;;;8.70;8.00;;;27.30;64.00;;;;;;221838;1271;25931;-49
2023/08/20 05:16:58;;;;;;;10.70;8.30;;;27.40;64.20;;;;;;221923;1271;23907;-50
2023/08/20 05:22:00;;;;;;;9.50;8.60;;;27.40;64.20;;;;;;221664;1264;22670;-50
2023/08/20 05:27:14;;;;;;;9.00;8.40;;;27.40;64.30;;;;;;221858;1271;23102;-50
2023/08/20 05:32:17;;;;;;;;;;;27.40;64.30;;;;;;221922;1267;23633;-50
2023/08/20 05:37:20;;;;;;;8.90;8.30;;;27.40;64.40;;;;;;221980;1268;22554;-53
2023/08/20 05:42:23;;;;;;;8.90;8.10;;;27.40;64.50;;;;;;222138;1267;22725;-47
2023/08/20 05:47:29;;;;;;;9.10;8.40;;;27.40;64.70;;;;;;221801;1264;24340;-46
2023/08/20 05:52:32;;;;;;;9.10;8.40;;;27.50;64.80;;;;;;222041;1267;22523;-49
2023/08/20 05:57:37;;;;;;;9.40;8.80;;;27.50;64.90;;;;;;221812;1271;22547;-48
2023/08/20 06:02:40;;;;;;;9.90;9.10;;;27.50;64.90;;;;;;222016;1270;25390;-51
2023/08/20 06:07:43;;;;;;;10.60;9.70;;;27.50;65.10;;;;;;221976;1267;24174;-52
2023/08/20 06:12:46;;;;;;;9.50;8.90;;;27.60;65.20;;;;;;221820;1264;25483;-51
2023/08/20 06:17:49;;;;;;;9.70;9.00;;;27.60;65.30;;;;;;222098;1270;22772;-49
2023/08/20 06:22:51;;;;;;;10.20;9.50;;;27.60;65.20;;;;;;221936;1264;24078;-48
2023/08/20 06:27:54;;;;;;;10.00;9.30;;;27.60;65.30;;;;;;221523;1270;22650;-50
2023/08/20 06:32:57;;;;;;;9.90;8.90;;;27.60;65.40;;;;;;221999;1267;22663;-48
2023/08/20 06:38:00;;;;;;;9.80;9.00;;;27.60;65.30;;;;;;222126;1253;23907;-48
2023/08/20 06:43:03;;;;;;;9.90;9.20;;;27.60;65.20;;;;;;221823;1271;22682;-52
2023/08/20 06:48:06;;;;;;;8.90;8.30;;;27.60;65.20;;;;;;222015;1269;22649;-48
2023/08/20 06:53:09;;;;;;;9.90;9.10;;;27.70;65.20;;;;;;221980;1267;22521;-49
2023/08/20 06:58:12;;;;;;;9.80;8.80;;;27.70;65.50;;;;;;221688;1264;22565;-49
2023/08/20 07:03:15;;;;;;;9.70;8.80;;;27.70;65.10;;;;;;221858;1264;22540;-51
2023/08/20 07:08:18;;;;;;;9.50;8.80;;;27.70;65.10;;;;;;221853;1258;22555;-49
2023/08/20 07:13:22;;;;;;;10.10;9.40;;;27.80;65.10;;;;;;221794;1263;25437;-48
2023/08/20 07:18:25;;;;;;;9.70;9.00;;;27.80;65.10;;;;;;221982;1265;22658;-51
2023/08/20 07:23:28;;;;;;;9.30;8.60;;;27.90;65.30;;;;;;221836;1264;22540;-49
2023/08/20 07:33:55;;;;;;;9.30;8.60;;;27.90;65.30;;;;;;221982;1257;22520;-50
2023/08/20 07:38:57;;;;;;;9.40;8.60;;;27.90;65.40;;;;;;221939;1267;22649;-48
2023/08/20 07:44:00;;;;;;;9.80;9.00;;;27.90;65.60;;;;;;221767;1271;24111;-49
2023/08/20 07:49:03;;;;;;;9.80;9.10;;;28.00;65.70;;;;;;221888;1257;22545;-47
2023/08/20 07:54:06;;;;;;;9.40;8.70;;;28.00;65.70;;;;;;221881;1264;23485;-48
2023/08/20 07:59:09;;;;;;;10.50;9.50;;;28.00;65.90;;;;;;222029;1257;22543;-51
2023/08/20 08:04:12;;;;;;;9.80;9.00;;;28.10;65.70;;;;;;221851;1270;22520;-52
2023/08/20 08:09:27;;;;;;;10.40;9.60;;;28.10;65.60;;;;;;221962;1260;22533;-50
2023/08/20 08:14:30;;;;;;;10.30;9.50;;;28.20;65.50;;;;;;222175;1257;22522;-48
2023/08/20 08:19:33;;;;;;;10.90;10.10;;;28.20;65.90;;;;;;221984;1267;22611;-51
2023/08/20 08:24:36;;;;;;;10.20;9.50;;;28.20;65.50;;;;;;221881;1269;25499;-48
2023/08/20 08:29:39;;;;;;;10.70;9.80;;;28.20;65.60;;;;;;221775;1264;22556;-46
2023/08/20 08:34:42;;;;;;;10.90;10.00;;;28.30;65.50;;;;;;221966;1264;22516;-48
2023/08/20 08:39:45;;;;;;;10.20;9.40;;;28.30;65.50;;;;;;221919;1264;22569;-50
2023/08/20 08:44:49;;;;;;;9.70;9.00;;;28.30;65.60;;;;;;221802;1271;22737;-50
2023/08/20 08:49:56;;;;;;;10.30;9.60;;;28.40;65.20;;;;;;221862;1260;24231;-48
2023/08/20 08:54:59;;;;;;;10.50;9.60;;;28.50;65.00;;;;;;221916;1267;25130;-47
2023/08/20 09:00:09;;;;;;;10.20;9.40;;;28.50;65.30;;;;;;222020;1268;23032;-48
2023/08/20 09:05:15;;;;;;;9.80;9.10;;;28.60;64.70;;;;;;222169;1264;22657;-47
2023/08/20 09:10:19;;;;;;;9.90;9.20;;;28.60;64.60;;;;;;221890;1271;22531;-47
2023/08/20 09:15:30;;;;;;;10.20;9.40;;;28.60;64.60;;;;;;221717;1255;25310;-51
2023/08/20 09:20:35;;;;;;;9.60;8.90;;;28.50;65.00;;;;;;221722;1269;25374;-50
2023/08/20 09:25:38;;;;;;;9.50;8.80;;;28.50;64.80;;;;;;221808;1266;24209;-49
2023/08/20 09:30:55;;;;;;;9.00;8.40;;;28.50;64.80;;;;;;221440;1268;22615;-50
2023/08/20 09:35:58;;;;;;;8.70;8.10;;;28.60;64.70;;;;;;221550;1264;22684;-50
2023/08/20 09:41:01;;;;;;;9.40;8.80;;;28.60;65.00;;;;;;221562;1269;22543;-51
2023/08/20 09:46:05;;;;;;;9.80;9.00;;;28.60;65.00;;;;;;221826;1261;24239;-52
2023/08/20 09:51:11;;;;;;;9.40;8.70;;;28.60;64.60;;;;;;221935;1267;22765;-53
2023/08/20 09:56:38;;;;;;;9.00;8.30;;;28.60;64.50;;;;;;222070;1264;22578;-53
2023/08/20 10:01:41;;;;;;;9.50;8.90;;;28.70;64.60;;;;;;222007;1263;22620;-51
2023/08/20 10:06:44;;;;;;;9.00;8.30;;;28.80;64.20;;;;;;222144;1268;22533;-50
2023/08/20 10:11:48;;;;;;;9.50;8.80;;;28.80;64.60;;;;;;221620;1264;24214;-51
2023/08/20 10:16:52;;;;;;;8.50;7.90;;;28.90;63.90;;;;;;221605;1263;22547;-47
2023/08/20 10:21:56;;;;;;;9.40;8.60;;;28.90;63.80;;;;;;221609;1254;22547;-52
2023/08/20 10:27:12;;;;;;;8.30;7.80;;;28.90;63.70;;;;;;221688;1260;22517;-50
2023/08/20 10:32:15;;;;;;;9.40;8.70;;;29.00;63.70;;;;;;221942;1264;24205;-50
2023/08/20 10:37:30;;;;;;;8.90;8.20;;;29.00;63.70;;;;;;221689;1267;22989;-46
2023/08/20 10:42:43;;;;;;;8.30;7.80;;;29.00;63.60;;;;;;221777;1259;22546;-52
2023/08/20 10:47:48;;;;;;;9.10;8.50;;;29.00;63.70;;;;;;221825;1264;22620;-54
2023/08/20 10:52:56;;;;;;;8.60;8.00;;;29.00;63.60;;;;;;221800;1266;22534;-54
2023/08/20 10:58:02;;;;;;;8.20;7.60;;;29.00;64.00;;;;;;221937;1267;22628;-50
2023/08/20 11:03:05;;;;;;;8.90;8.20;;;29.10;63.60;;;;;;221872;1268;22557;-48
2023/08/20 11:08:09;;;;;;;9.60;8.90;;;29.10;63.50;;;;;;222028;1264;22514;-51
2023/08/20 11:13:12;;;;;;;8.20;7.60;;;29.20;63.30;;;;;;221969;1268;22570;-48
2023/08/20 11:18:16;;;;;;;8.40;7.80;;;29.30;63.20;;;;;;221860;1270;22543;-51
2023/08/20 11:23:22;;;;;;;8.60;8.00;;;29.20;63.30;;;;;;221868;1264;25311;-52
2023/08/20 11:28:27;;;;;;;8.80;8.20;;;29.30;63.40;;;;;;221760;1255;25376;-48
2023/08/20 11:33:29;;;;;;;8.40;7.80;;;29.30;63.20;;;;;;221986;1270;22727;-48
2023/08/20 11:38:32;;;;;;;8.60;7.80;;;29.40;63.20;;;;;;222046;1264;22521;-51
2023/08/20 11:43:36;;;;;;;8.30;7.70;;;29.40;63.00;;;;;;221862;1269;22503;-50
2023/08/20 11:48:59;;;;;;;8.20;7.20;;;29.40;63.30;;;;;;221783;1266;22528;-50
2023/08/20 11:54:01;;;;;;;8.40;7.70;;;29.40;62.70;;;;;;221822;1270;22533;-53
2023/08/20 11:59:04;;;;;;;9.60;8.60;;;29.50;63.00;;;;;;221854;1267;22732;-48
2023/08/20 12:04:09;;;;;;;8.70;8.10;;;29.50;62.60;;;;;;221860;1267;23900;-48
2023/08/20 12:09:23;;;;;;;8.10;7.60;;;29.60;62.50;;;;;;221560;1259;24242;-49
2023/08/20 12:14:26;;;;;;;8.70;8.00;;;29.60;62.30;;;;;;221895;1271;22607;-50
2023/08/20 12:19:29;;;;;;;8.40;7.80;;;29.70;62.00;;;;;;221641;1259;22534;-47
2023/08/20 12:24:32;;;;;;;8.40;7.80;;;29.80;62.20;;;;;;221953;1268;23980;-50
2023/08/20 12:29:35;;;;;;;8.60;7.90;;;29.70;62.70;;;;;;221990;1264;22701;-50
2023/08/20 12:34:38;;;;;;;7.70;7.20;;;29.70;62.20;;;;;;221893;1270;24207;-53
2023/08/20 12:39:42;;;;;;;8.10;7.60;;;29.80;62.20;;;;;;221881;1264;22533;-50
2023/08/20 12:44:44;;;;;;;7.80;7.30;;;29.80;62.00;;;;;;221786;1261;22658;-50
2023/08/20 12:49:47;;;;;;;8.40;7.80;;;29.90;62.00;;;;;;221696;1260;22653;-51
2023/08/20 12:54:51;;;;;;;9.30;8.60;;;29.90;61.90;;;;;;221749;1268;22535;-49
2023/08/20 12:59:54;;;;;;;8.90;8.20;;;29.90;61.80;;;;;;221618;1271;22628;-50
2023/08/20 13:04:58;;;;;;;8.00;7.50;;;30.00;61.70;;;;;;221861;1265;22672;-51
2023/08/20 13:10:03;;;;;;;8.30;7.80;;;30.00;61.60;;;;;;222090;1270;25328;-50
2023/08/20 13:15:09;;;;;;;7.60;7.10;;;30.00;61.50;;;;;;222066;1264;22580;-50
2023/08/20 13:20:12;;;;;;;8.80;8.20;;;30.10;61.20;;;;;;221863;1270;24348;-52
2023/08/20 13:25:16;;;;;;;7.40;7.00;;;30.00;60.80;;;;;;221901;1265;23897;-47
2023/08/20 13:30:19;;;;;;;7.50;7.00;;;30.10;60.80;;;;;;222006;1255;22638;-50
2023/08/20 13:35:23;;;;;;;8.00;7.40;;;30.10;60.50;;;;;;222114;1258;22676;-49
2023/08/20 13:40:26;;;;;;;7.30;6.90;;;30.10;60.80;;;;;;222021;1266;22568;-50
2023/08/20 13:45:29;;;;;;;8.10;7.50;;;30.00;60.00;;;;;;221908;1255;25637;-48
2023/08/20 13:50:32;;;;;;;7.20;6.70;;;30.10;59.90;;;;;;222045;1270;22585;-50
2023/08/20 13:55:35;;;;;;;7.10;6.70;;;30.20;59.80;;;;;;222114;1263;22983;-50
2023/08/20 14:00:40;;;;;;;6.90;6.50;;;30.10;59.50;;;;;;222088;1267;24255;-47
2023/08/20 14:05:45;;;;;;;6.90;6.40;;;30.10;59.50;;;;;;221925;1264;22562;-49
2023/08/20 14:10:49;;;;;;;7.70;7.10;;;30.10;59.60;;;;;;221955;1264;22647;-47
2023/08/20 14:15:53;;;;;;;6.80;6.40;;;30.00;59.50;;;;;;221864;1267;23217;-48
2023/08/20 14:20:56;;;;;;;7.70;7.20;;;30.00;59.40;;;;;;221905;1268;24202;-46
2023/08/20 14:25:59;;;;;;;7.00;6.50;;;30.00;59.70;;;;;;221951;1255;22696;-49
2023/08/20 14:31:03;;;;;;;6.90;6.50;;;29.90;59.60;;;;;;221933;1269;22567;-48
2023/08/20 14:36:07;;;;;;;6.80;6.30;;;30.00;59.60;;;;;;222004;1267;25631;-50
2023/08/20 14:41:10;;;;;;;7.80;7.10;;;30.00;60.00;;;;;;221723;1265;24199;-49
2023/08/20 14:46:13;;;;;;;7.40;6.90;;;30.00;59.90;;;;;;221595;1260;24400;-49
2023/08/20 14:51:16;;;;;;;6.90;6.40;;;30.00;60.10;;;;;;221821;1257;22685;-50
2023/08/20 14:56:18;;;;;;;6.70;6.30;;;30.00;60.20;;;;;;221806;1263;22681;-48
2023/08/20 15:01:22;;;;;;;7.20;6.50;;;30.00;60.30;;;;;;221784;1266;22548;-49
2023/08/20 15:06:26;;;;;;;7.30;6.80;;;29.90;60.30;;;;;;221886;1265;22530;-48
2023/08/20 15:11:31;;;;;;;6.90;6.50;;;29.90;60.40;;;;;;221982;1265;24106;-48
2023/08/20 15:16:34;;;;;;;6.90;6.40;;;29.90;60.50;;;;;;221761;1264;22538;-53
2023/08/20 15:21:37;;;;;;;6.80;6.40;;;29.90;60.70;;;;;;222010;1256;24321;-48
2023/08/20 15:26:41;;;;;;;7.20;6.70;;;29.90;60.70;;;;;;221949;1267;217195;-50
2023/08/20 15:31:44;;;;;;;7.00;6.50;;;29.90;60.80;;;;;;221921;1270;24303;-47
2023/08/20 15:36:48;;;;;;;7.00;6.50;;;29.90;61.00;;;;;;222021;1263;23459;-50
2023/08/20 15:41:52;;;;;;;6.70;6.20;;;29.90;61.10;;;;;;221863;1265;22718;-52
2023/08/20 15:46:55;;;;;;;6.20;5.80;;;29.90;61.20;;;;;;221833;1261;22849;-51
2023/08/20 15:51:57;;;;;;;6.50;6.10;;;29.90;61.30;;;;;;221800;1267;22572;-45
2023/08/20 15:57:01;;;;;;;6.40;5.90;;;29.90;61.70;;;;;;221901;1264;22542;-50
2023/08/20 16:02:04;;;;;;;7.50;7.00;;;29.90;61.60;;;;;;221937;1264;22569;-50
2023/08/20 16:07:07;;;;;;;6.50;6.10;;;29.80;62.10;;;;;;221641;1268;25632;-49
2023/08/20 16:12:10;;;;;;;6.70;6.30;;;29.80;61.70;;;;;;221715;1270;22757;-47
2023/08/20 16:17:14;;;;;;;6.80;6.40;;;29.80;61.80;;;;;;221703;1255;23975;-51
2023/08/20 16:22:16;;;;;;;6.40;6.00;;;29.80;61.80;;;;;;221823;1255;22625;-51
2023/08/20 16:27:20;;;;;;;6.50;6.10;;;29.80;61.80;;;;;;221732;1256;22619;-49
2023/08/20 16:32:24;;;;;;;5.90;5.50;;;29.80;61.80;;;;;;221808;1260;22579;-49
2023/08/20 16:37:27;;;;;;;6.50;6.10;;;29.80;61.80;;;;;;221696;1261;23006;-47
2023/08/20 16:42:31;;;;;;;7.10;6.60;;;29.80;62.00;;;;;;221878;1265;22521;-48
2023/08/20 16:47:35;;;;;;;6.30;5.90;;;29.80;61.90;;;;;;221827;1265;22527;-48
2023/08/20 16:52:40;;;;;;;7.10;6.60;;;29.80;61.90;;;;;;221608;1264;22562;-49
2023/08/20 16:57:44;;;;;;;7.50;7.00;;;29.80;62.00;;;;;;221766;1263;22536;-50
2023/08/20 17:02:47;;;;;;;6.60;6.20;;;29.70;62.40;;;;;;221863;1262;23947;-51
2023/08/20 17:07:51;;;;;;;7.10;6.60;;;29.70;62.20;;;;;;221855;1271;22641;-47
2023/08/20 17:12:55;;;;;;;6.70;6.20;;;29.70;62.40;;;;;;221987;1264;22625;-47
2023/08/20 17:17:59;;;;;;;6.70;6.30;;;29.70;62.60;;;;;;222139;1269;22535;-47
2023/08/20 17:23:03;;;;;;;6.50;6.10;;;29.60;63.30;;;;;;221935;1267;24275;-48
2023/08/20 17:28:08;;;;;;;6.80;6.30;;;29.60;62.80;;;;;;221863;1265;23528;-49
2023/08/20 17:33:15;;;;;;;6.50;5.90;;;29.60;63.00;;;;;;221955;1269;23492;-49
2023/08/20 17:38:20;;;;;;;6.80;6.30;;;29.60;63.20;;;;;;221909;1269;23251;-51
2023/08/20 17:43:23;;;;;;;6.60;6.20;;;29.60;63.40;;;;;;221821;1266;22578;-48
2023/08/20 17:48:30;;;;;;;7.30;6.80;;;29.60;63.80;;;;;;221835;1265;22544;-51
2023/08/20 17:53:33;;;;;;;8.50;7.80;;;29.60;64.10;;;;;;221839;1268;23861;-49
2023/08/20 17:58:37;;;;;;;7.10;6.50;;;29.50;63.80;;;;;;221978;1266;22532;-50
2023/08/20 18:03:40;;;;;;;7.80;7.20;;;29.50;64.20;;;;;;221732;1265;25534;-49
2023/08/20 18:08:44;;;;;;;7.50;7.00;;;29.50;64.20;;;;;;221939;1266;22549;-50
2023/08/20 18:13:48;;;;;;;8.10;7.50;;;29.50;64.40;;;;;;221831;1261;24277;-49
2023/08/20 18:18:51;;;;;;;7.90;7.40;;;29.50;64.40;;;;;;222017;1256;22683;-50
2023/08/20 18:23:55;;;;;;;8.20;7.60;;;29.50;64.30;;;;;;221789;1269;24180;-52
2023/08/20 18:29:00;;;;;;;8.20;7.60;;;29.50;64.40;;;;;;221833;1268;22545;-51
2023/08/20 18:34:04;;;;;;;7.80;7.30;;;29.50;65.20;;;;;;222030;1265;25393;-46
2023/08/20 18:39:09;;;;;;;8.10;7.50;;;29.50;64.50;;;;;;221624;1269;22540;-50
2023/08/20 18:44:14;;;;;;;8.10;7.50;;;29.40;65.20;;;;;;221974;1263;22644;-50
2023/08/20 18:49:18;;;;;;;8.30;7.80;;;29.40;64.60;;;;;;221937;1270;25313;-50
2023/08/20 18:54:22;;;;;;;8.20;7.60;;;29.40;65.00;;;;;;221720;1268;26220;-52
2023/08/20 18:59:27;;;;;;;8.40;7.80;;;29.40;64.80;;;;;;221980;1263;25082;-48
2023/08/20 19:04:31;;;;;;;9.20;8.40;;;29.40;64.80;;;;;;222016;1269;22529;-49
2023/08/20 19:09:35;;;;;;;8.50;7.90;;;29.40;64.90;;;;;;222178;1263;25457;-48
2023/08/20 19:14:39;;;;;;;7.90;7.30;;;29.30;64.90;;;;;;221717;1270;22752;-50
2023/08/20 19:19:45;;;;;;;9.20;8.50;;;29.30;65.00;;;;;;221864;1269;23185;-51
2023/08/20 19:24:48;;;;;;;9.30;8.40;;;29.30;65.10;;;;;;221829;1267;22641;-48
2023/08/20 19:29:53;;;;;;;8.90;8.20;;;29.30;65.20;;;;;;221799;1269;22577;-51
2023/08/20 19:34:57;;;;;;;8.30;7.60;;;29.30;65.20;;;;;;221959;1269;22606;-52
2023/08/20 19:40:08;;;;;;;9.30;8.60;;;29.30;65.10;;;;;;221811;1266;25654;-48
2023/08/20 19:45:13;;;;;;;8.90;8.20;;;29.30;65.30;;;;;;221817;1270;24726;-52
2023/08/20 19:50:19;;;;;;;9.10;8.20;;;29.30;65.30;;;;;;222011;1268;23900;-49
2023/08/20 19:55:23;;;;;;;8.60;8.00;;;29.30;65.40;;;;;;221919;1250;24183;-48
2023/08/20 20:00:28;;;;;;;9.40;8.70;;;29.20;65.60;;;;;;221808;1265;24203;-50
2023/08/20 20:05:35;;;;;;;9.00;8.20;;;29.20;65.80;;;;;;221961;1269;25406;-50
2023/08/20 20:10:38;;;;;;;9.80;8.80;;;29.10;65.90;;;;;;221784;1266;25490;-51
2023/08/20 20:15:44;;;;;;;8.80;8.20;;;29.10;65.90;;;;;;221994;1265;24368;-47
2023/08/20 20:20:47;;;;;;;8.90;8.10;;;29.10;65.80;;;;;;221797;1268;22542;-49
2023/08/20 20:25:58;;;;;;;9.40;8.50;;;29.10;66.20;;;;;;221920;1263;22538;-49
2023/08/20 20:31:01;;;;;;;8.60;7.80;;;29.10;66.10;;;;;;221803;1268;22541;-50
2023/08/20 20:36:05;;;;;;;8.70;7.90;;;29.10;65.80;;;;;;221903;1264;22601;-52
2023/08/20 20:41:12;;;;;;;8.70;7.90;;;29.10;65.80;;;;;;221829;1263;25338;-48
2023/08/20 20:46:18;;;;;;;9.00;8.20;;;29.10;65.90;;;;;;221951;1268;22662;-52
2023/08/20 20:51:22;;;;;;;9.00;8.30;;;29.10;65.80;;;;;;221865;1271;22984;-49
2023/08/20 20:56:28;;;;;;;8.80;8.00;;;29.10;65.90;;;;;;221966;1268;24978;-52
2023/08/20 21:01:32;;;;;;;9.70;8.90;;;29.10;66.20;;;;;;221979;1261;24285;-53
2023/08/20 21:06:35;;;;;;;9.20;8.50;;;29.10;65.90;;;;;;221872;1271;22522;-51
2023/08/20 21:11:39;;;;;;;9.20;8.50;;;29.10;66.00;;;;;;221837;1260;24717;-50
2023/08/20 21:16:42;;;;;;;8.90;8.20;;;29.00;66.00;;;;;;221931;1265;22604;-54
2023/08/20 21:21:46;;;;;;;10.10;9.30;;;29.00;66.30;;;;;;221877;1271;22539;-53
2023/08/20 21:26:49;;;;;;;8.90;8.20;;;29.10;66.40;;;;;;221834;1261;24390;-51
2023/08/20 21:31:52;;;;;;;8.80;8.00;;;29.10;66.00;;;;;;221695;1270;22614;-48
2023/08/20 21:36:54;;;;;;;8.60;8.00;;;29.00;66.00;;;;;;221637;1263;25279;-51
2023/08/20 21:41:58;;;;;;;8.40;7.80;;;29.00;66.10;;;;;;221731;1268;25499;-53
2023/08/20 21:47:18;;;;;;;9.10;8.50;;;29.00;66.10;;;;;;221970;1268;25255;-48
2023/08/20 21:52:21;;;;;;;9.20;8.50;;;29.00;66.20;;;;;;221969;1264;22688;-51
2023/08/20 21:57:24;;;;;;;8.40;7.30;;;29.00;66.30;;;;;;221825;1264;22581;-51
2023/08/20 22:02:27;;;;;;;8.20;7.60;;;29.00;66.70;;;;;;221889;1271;22614;-51
2023/08/20 22:07:30;;;;;;;8.90;8.10;;;29.00;66.40;;;;;;221688;1268;22841;-49
2023/08/20 22:12:33;;;;;;;8.70;7.90;;;29.00;66.40;;;;;;221671;1260;22529;-47
2023/08/20 22:17:36;;;;;;;8.40;7.80;;;28.90;66.30;;;;;;221706;1268;24211;-52
2023/08/20 22:22:40;;;;;;;8.60;8.00;;;28.90;66.50;;;;;;221583;1265;22528;-50
2023/08/20 22:27:43;;;;;;;8.30;7.70;;;28.90;66.80;;;;;;221967;1270;22620;-50
2023/08/20 22:32:46;;;;;;;9.30;8.40;;;28.90;66.40;;;;;;221884;1261;22564;-54
2023/08/20 22:38:07;;;;;;;8.10;7.20;;;28.90;66.30;;;;;;221670;1270;22558;-50
2023/08/20 22:43:10;;;;;;;8.30;7.70;;;28.90;66.10;;;;;;221734;1270;22606;-50
2023/08/20 22:48:13;;;;;;;7.40;6.80;;;28.80;66.00;;;;;;221809;1269;22527;-50
2023/08/20 22:53:16;;;;;;;8.30;7.60;;;28.80;65.90;;;;;;221785;1271;22533;-54
2023/08/20 22:58:19;;;;;;;8.30;7.60;;;28.80;65.90;;;;;;221702;1269;22533;-48
2023/08/20 23:03:23;;;;;;;8.30;7.50;;;28.80;65.90;;;;;;221652;1271;24113;-53
2023/08/20 23:08:26;;;;;;;7.80;7.20;;;28.80;65.80;;;;;;222030;1264;24354;-53
2023/08/20 23:13:29;;;;;;;8.40;7.70;;;28.70;65.80;;;;;;221965;1262;22580;-50
2023/08/20 23:18:32;;;;;;;9.30;7.90;;;28.70;65.70;;;;;;221855;1264;22553;-52
2023/08/20 23:23:35;;;;;;;9.00;8.30;;;28.80;65.60;;;;;;221769;1269;22535;-49
2023/08/20 23:28:38;;;;;;;8.60;7.80;;;28.70;65.50;;;;;;221853;1268;22606;-50
2023/08/20 23:33:42;;;;;;;8.70;7.90;;;28.70;65.50;;;;;;221959;1257;24364;-52
2023/08/20 23:38:45;;;;;;;9.00;8.30;;;28.70;65.40;;;;;;221900;1269;22669;-49
2023/08/20 23:43:47;;;;;;;8.70;8.00;;;28.70;65.40;;;;;;221763;1271;22587;-50
2023/08/20 23:48:52;;;;;;;8.60;7.90;;;28.70;65.40;;;;;;221571;1255;22561;-50
2023/08/20 23:53:55;;;;;;;8.60;7.80;;;28.70;65.40;;;;;;221838;1269;22536;-50
2023/08/20 23:58:58;;;;;;;8.70;7.70;;;28.70;65.70;;;;;;221783;1264;22593;-50
